Time;durP1;ratioP1;P1;durP2;ratioP2;P2;SDS_P1;SDS_P2;PMS_P1;PMS_P2;Temp;Humidity;BMP_temperature;BMP_pressure;BME280_temperature;BME280_humidity;BME280_pressure;Samples;Min_cycle;Max_cycle;Signal;HPM_P1;HPM_P2
2022/06/20 00:02:21;;;;;;;9.17;6.90;;;;;;;;;;4930065;28;20450;-55
2022/06/20 00:04:48;;;;;;;8.30;7.33;;;;;;;;;;4934523;28;20482;-54
2022/06/20 00:07:15;;;;;;;10.97;8.40;;;;;;;;;;4929384;28;20528;-53
2022/06/20 00:09:41;;;;;;;10.50;8.87;;;;;;;;;;4907987;28;20949;-54
2022/06/20 00:12:08;;;;;;;13.83;8.47;;;;;;;;;;4933590;28;20481;-55
2022/06/20 00:14:34;;;;;;;11.97;10.67;;;;;;;;;;4933814;28;20921;-55
2022/06/20 00:17:01;;;;;;;9.97;8.73;;;;;;;;;;4930828;28;20688;-55
2022/06/20 00:20:04;;;;;;;12.70;8.47;;;;;;;;;;4933967;28;20505;-56
2022/06/20 00:22:32;;;;;;;16.53;8.83;;;;;;;;;;4941382;28;20960;-56
2022/06/20 00:24:58;;;;;;;12.10;8.20;;;;;;;;;;4933571;28;20968;-55
2022/06/20 00:27:25;;;;;;;11.13;8.00;;;;;;;;;;4936196;28;20522;-55
2022/06/20 00:29:50;;;;;;;12.00;8.37;;;;;;;;;;4911802;28;21245;-55
2022/06/20 00:32:17;;;;;;;12.87;8.43;;;;;;;;;;4934131;28;20449;-55
2022/06/20 00:34:47;;;;;;;12.20;8.93;;;;;;;;;;4939090;28;20732;-54
2022/06/20 00:37:17;;;;;;;10.53;7.97;;;;;;;;;;4941257;28;21126;-55
2022/06/20 00:39:54;;;;;;;13.50;8.33;;;;;;;;;;4920083;28;21135;-53
2022/06/20 00:42:29;;;;;;;12.80;9.80;;;;;;;;;;4933994;28;20489;-55
2022/06/20 00:44:56;;;;;;;13.47;7.93;;;;;;;;;;4918363;28;20549;-54
2022/06/20 00:47:25;;;;;;;8.87;7.90;;;;;;;;;;4931742;28;20865;-54
2022/06/20 00:49:52;;;;;;;11.53;8.70;;;;;;;;;;4905217;28;21423;-55
2022/06/20 00:52:25;;;;;;;11.70;9.47;;;;;;;;;;4926511;28;20544;-53
2022/06/20 00:54:52;;;;;;;12.57;9.10;;;;;;;;;;4908251;28;21257;-55
2022/06/20 00:57:28;;;;;;;13.97;9.17;;;;;;;;;;4927978;28;20505;-55
2022/06/20 01:00:03;;;;;;;11.47;8.83;;;;;;;;;;4916970;28;20642;-54
2022/06/20 01:02:31;;;;;;;14.17;10.40;;;;;;;;;;4931449;28;20476;-53
2022/06/20 01:05:01;;;;;;;16.73;10.70;;;;;;;;;;4920810;28;20490;-53
2022/06/20 01:07:51;;;;;;;17.93;12.07;;;;;;;;;;4936907;28;20586;-54
2022/06/20 01:10:21;;;;;;;23.30;12.23;;;;;;;;;;4908145;28;20765;-54
2022/06/20 01:12:51;;;;;;;17.30;12.37;;;;;;;;;;4935094;28;21660;-55
2022/06/20 01:15:21;;;;;;;17.93;12.10;;;;;;;;;;4896664;28;21658;-54
2022/06/20 01:17:47;;;;;;;15.90;11.23;;;;;;;;;;4934897;28;20435;-54
2022/06/20 01:20:32;;;;;;;18.43;11.50;;;;;;;;;;4909156;28;20558;-55
2022/06/20 01:23:17;;;;;;;18.07;11.87;;;;;;;;;;4930516;28;20509;-54
2022/06/20 01:25:52;;;;;;;18.27;12.43;;;;;;;;;;4899167;28;20477;-54
2022/06/20 01:28:19;;;;;;;23.33;13.57;;;;;;;;;;4927699;28;20447;-54
2022/06/20 01:30:45;;;;;;;23.20;13.77;;;;;;;;;;4917395;28;20450;-54
2022/06/20 01:33:12;;;;;;;22.67;12.20;;;;;;;;;;4937906;28;20478;-52
2022/06/20 01:38:34;;;;;;;17.50;12.50;;;;;;;;;;4935429;28;20517;-55
2022/06/20 01:43:54;;;;;;;16.20;11.67;;;;;;;;;;4939200;28;20639;-54
2022/06/20 01:46:20;;;;;;;19.90;14.10;;;;;;;;;;4946634;28;20457;-54
2022/06/20 01:49:08;;;;;;;15.63;11.40;;;;;;;;;;4922046;28;21218;-55
2022/06/20 01:51:39;;;;;;;15.10;12.53;;;;;;;;;;4941135;28;20442;-54
2022/06/20 01:54:16;;;;;;;16.80;12.30;;;;;;;;;;4910270;28;20509;-53
2022/06/20 01:56:45;;;;;;;19.00;12.70;;;;;;;;;;4938088;28;20819;-54
2022/06/20 01:59:13;;;;;;;14.40;13.00;;;;;;;;;;4923702;28;20821;-55
2022/06/20 02:01:39;;;;;;;22.90;13.87;;;;;;;;;;4940262;28;20446;-53
2022/06/20 02:04:16;;;;;;;17.50;12.40;;;;;;;;;;4934078;28;20482;-53
2022/06/20 02:06:42;;;;;;;18.33;12.13;;;;;;;;;;4945057;28;20447;-54
2022/06/20 02:09:09;;;;;;;17.53;11.70;;;;;;;;;;4921691;28;20482;-54
2022/06/20 02:11:35;;;;;;;13.37;11.83;;;;;;;;;;4942671;28;20452;-54
2022/06/20 02:14:09;;;;;;;16.73;12.50;;;;;;;;;;4939006;28;20470;-53
2022/06/20 02:16:46;;;;;;;16.00;12.07;;;;;;;;;;4939653;28;20458;-55
2022/06/20 02:19:14;;;;;;;19.70;14.67;;;;;;;;;;4957584;28;20943;-52
2022/06/20 02:21:40;;;;;;;20.87;12.17;;;;;;;;;;4941670;28;20485;-55
2022/06/20 02:24:29;;;;;;;13.33;11.50;;;;;;;;;;4910603;28;20482;-54
2022/06/20 02:27:01;;;;;;;17.80;12.73;;;;;;;;;;4944617;28;20477;-52
2022/06/20 02:29:27;;;;;;;15.67;12.53;;;;;;;;;;4912842;28;20441;-54
2022/06/20 02:31:57;;;;;;;14.50;11.57;;;;;;;;;;4943495;28;20447;-54
2022/06/20 02:34:23;;;;;;;21.00;13.70;;;;;;;;;;4932742;28;20570;-53
2022/06/20 02:36:50;;;;;;;17.50;12.77;;;;;;;;;;4936738;28;20791;-53
2022/06/20 02:39:17;;;;;;;15.50;13.07;;;;;;;;;;4913885;28;20439;-53
2022/06/20 02:41:44;;;;;;;23.90;13.17;;;;;;;;;;4942093;28;20466;-54
2022/06/20 02:44:12;;;;;;;17.27;12.13;;;;;;;;;;4903318;28;20702;-54
2022/06/20 02:46:38;;;;;;;20.20;12.20;;;;;;;;;;4941259;28;20518;-55
2022/06/20 02:49:04;;;;;;;13.00;11.60;;;;;;;;;;4936923;28;20976;-54
2022/06/20 02:51:31;;;;;;;20.97;11.43;;;;;;;;;;4938355;28;20191;-54
2022/06/20 02:53:58;;;;;;;17.97;13.23;;;;;;;;;;4929326;28;20482;-54
2022/06/20 02:56:24;;;;;;;12.27;10.90;;;;;;;;;;4934870;28;20450;-53
2022/06/20 02:59:23;;;;;;;14.10;10.33;;;;;;;;;;4937111;28;20524;-55
2022/06/20 03:01:52;;;;;;;11.43;10.23;;;;;;;;;;4937945;28;20444;-53
2022/06/20 03:04:18;;;;;;;14.60;10.50;;;;;;;;;;4931628;28;20433;-54
2022/06/20 03:06:48;;;;;;;15.70;11.50;;;;;;;;;;4941673;28;20459;-54
2022/06/20 03:09:15;;;;;;;13.27;9.47;;;;;;;;;;4938620;28;20695;-54
2022/06/20 03:11:41;;;;;;;21.73;12.47;;;;;;;;;;4945832;28;20466;-54
2022/06/20 03:14:08;;;;;;;12.60;11.40;;;;;;;;;;4930912;28;21408;-54
2022/06/20 03:16:34;;;;;;;16.93;10.87;;;;;;;;;;4948636;28;20439;-54
2022/06/20 03:19:05;;;;;;;13.00;10.40;;;;;;;;;;4928653;28;20454;-55
2022/06/20 03:21:34;;;;;;;15.57;12.33;;;;;;;;;;4942644;28;20944;-53
2022/06/20 03:24:01;;;;;;;14.83;11.33;;;;;;;;;;4948071;28;20457;-54
2022/06/20 03:26:27;;;;;;;22.53;10.80;;;;;;;;;;4927238;28;20430;-53
2022/06/20 03:28:54;;;;;;;18.80;11.43;;;;;;;;;;4945044;28;21369;-54
2022/06/20 03:31:20;;;;;;;15.70;11.13;;;;;;;;;;4899467;28;20877;-54
2022/06/20 03:33:46;;;;;;;22.83;10.83;;;;;;;;;;4944077;28;20518;-53
2022/06/20 03:36:13;;;;;;;13.77;10.20;;;;;;;;;;4941392;28;20849;-54
2022/06/20 03:38:39;;;;;;;15.77;11.50;;;;;;;;;;4950504;28;20458;-54
2022/06/20 03:41:05;;;;;;;13.60;11.00;;;;;;;;;;4922639;28;20451;-55
2022/06/20 03:43:31;;;;;;;15.67;10.90;;;;;;;;;;4948659;28;20438;-54
2022/06/20 03:46:01;;;;;;;19.33;11.37;;;;;;;;;;4931835;28;20507;-54
2022/06/20 03:48:36;;;;;;;17.53;11.60;;;;;;;;;;4945007;28;21243;-55
2022/06/20 03:51:04;;;;;;;20.03;12.03;;;;;;;;;;4945063;28;20434;-55
2022/06/20 03:53:36;;;;;;;15.43;12.30;;;;;;;;;;4929310;28;20490;-55
2022/06/20 03:56:05;;;;;;;13.00;10.90;;;;;;;;;;4934641;28;20443;-55
2022/06/20 03:58:36;;;;;;;14.30;11.63;;;;;;;;;;4945050;28;21583;-56
2022/06/20 04:01:04;;;;;;;20.00;12.53;;;;;;;;;;4915576;28;20442;-54
2022/06/20 04:03:36;;;;;;;14.13;11.67;;;;;;;;;;4947930;28;20431;-56
2022/06/20 04:06:07;;;;;;;26.20;13.37;;;;;;;;;;4942813;28;20446;-56
2022/06/20 04:11:21;;;;;;;19.00;11.00;;;;;;;;;;4916347;28;20614;-56
2022/06/20 04:13:55;;;;;;;17.83;10.97;;;;;;;;;;4933642;28;20528;-55
2022/06/20 04:16:26;;;;;;;15.27;12.47;;;;;;;;;;4923228;28;20932;-57
2022/06/20 04:19:11;;;;;;;17.20;12.60;;;;;;;;;;4939848;28;20497;-57
2022/06/20 04:21:48;;;;;;;15.07;11.70;;;;;;;;;;4915963;28;20513;-57
2022/06/20 04:24:23;;;;;;;20.63;12.60;;;;;;;;;;4932612;29;20470;-55
2022/06/20 04:26:57;;;;;;;17.97;12.77;;;;;;;;;;4944896;28;20533;-56
2022/06/20 04:29:29;;;;;;;17.07;12.20;;;;;;;;;;4944155;28;20458;-55
2022/06/20 04:32:01;;;;;;;20.17;13.87;;;;;;;;;;4920983;28;20460;-55
2022/06/20 04:34:34;;;;;;;17.27;13.80;;;;;;;;;;4934407;28;20522;-55
2022/06/20 04:37:11;;;;;;;23.20;13.27;;;;;;;;;;4895924;28;20456;-56
2022/06/20 04:39:37;;;;;;;15.63;12.50;;;;;;;;;;4951950;28;20454;-56
2022/06/20 04:42:22;;;;;;;20.00;13.90;;;;;;;;;;4907649;28;20435;-58
2022/06/20 04:44:53;;;;;;;20.00;12.27;;;;;;;;;;4932111;28;20461;-54
2022/06/20 04:47:22;;;;;;;14.30;12.53;;;;;;;;;;4934240;28;20695;-55
2022/06/20 04:49:53;;;;;;;20.77;12.60;;;;;;;;;;4929697;28;20447;-55
2022/06/20 04:52:24;;;;;;;21.77;12.00;;;;;;;;;;4927400;28;20530;-56
2022/06/20 04:54:50;;;;;;;16.93;12.17;;;;;;;;;;4937089;28;21040;-54
2022/06/20 04:57:16;;;;;;;19.50;12.80;;;;;;;;;;4936567;28;20454;-54
2022/06/20 05:00:10;;;;;;;17.27;12.23;;;;;;;;;;4935401;28;20277;-54
2022/06/20 05:02:40;;;;;;;15.67;10.93;;;;;;;;;;4932813;28;20207;-56
2022/06/20 05:05:07;;;;;;;15.50;12.00;;;;;;;;;;4941446;28;20439;-56
2022/06/20 05:07:34;;;;;;;13.40;12.00;;;;;;;;;;4922940;28;20454;-54
2022/06/20 05:10:15;;;;;;;15.27;11.83;;;;;;;;;;4941601;28;20453;-56
2022/06/20 05:12:48;;;;;;;21.73;13.33;;;;;;;;;;4919838;28;20481;-55
2022/06/20 05:15:38;;;;;;;19.43;12.47;;;;;;;;;;4934938;28;20828;-52
2022/06/20 05:18:26;;;;;;;18.43;13.33;;;;;;;;;;4917101;28;20446;-54
2022/06/20 05:21:00;;;;;;;18.10;10.97;;;;;;;;;;4940939;28;20543;-55
2022/06/20 05:23:38;;;;;;;19.13;12.60;;;;;;;;;;4945765;28;20439;-55
2022/06/20 05:26:08;;;;;;;24.27;14.03;;;;;;;;;;4924804;28;21090;-56
2022/06/20 05:28:34;;;;;;;14.97;12.80;;;;;;;;;;4944043;28;20655;-54
2022/06/20 05:31:00;;;;;;;18.17;13.00;;;;;;;;;;4908276;28;24219;-55
2022/06/20 05:33:33;;;;;;;14.87;12.67;;;;;;;;;;4915220;28;20543;-56
2022/06/20 05:36:05;;;;;;;19.60;12.50;;;;;;;;;;4939928;28;20442;-55
2022/06/20 05:38:37;;;;;;;21.50;12.67;;;;;;;;;;4935810;28;20508;-54
2022/06/20 05:41:04;;;;;;;17.83;13.00;;;;;;;;;;4942065;28;20443;-55
2022/06/20 05:43:30;;;;;;;17.87;12.47;;;;;;;;;;4915466;28;20541;-55
2022/06/20 05:46:05;;;;;;;14.50;11.40;;;;;;;;;;4940857;28;20435;-55
2022/06/20 05:48:43;;;;;;;12.10;10.80;;;;;;;;;;4922087;28;21469;-56
2022/06/20 05:51:13;;;;;;;14.17;12.13;;;;;;;;;;4944289;28;20435;-55
2022/06/20 05:53:41;;;;;;;13.40;11.97;;;;;;;;;;4949492;28;20473;-56
2022/06/20 05:56:23;;;;;;;15.17;10.97;;;;;;;;;;4942799;28;20451;-56
2022/06/20 05:58:50;;;;;;;12.30;11.20;;;;;;;;;;4902823;28;20551;-56
2022/06/20 06:01:17;;;;;;;12.80;10.83;;;;;;;;;;4938427;28;20435;-56
2022/06/20 06:03:52;;;;;;;13.50;10.80;;;;;;;;;;4916387;28;20441;-54
2022/06/20 06:06:19;;;;;;;13.43;10.60;;;;;;;;;;4946015;28;20453;-56
2022/06/20 06:09:08;;;;;;;15.57;10.47;;;;;;;;;;4936153;28;20462;-56
2022/06/20 06:11:38;;;;;;;14.77;11.73;;;;;;;;;;4916612;28;20458;-56
2022/06/20 06:14:16;;;;;;;12.77;10.50;;;;;;;;;;4885548;28;20569;-55
2022/06/20 06:16:48;;;;;;;15.27;13.20;;;;;;;;;;4937968;28;20441;-53
2022/06/20 06:19:17;;;;;;;16.03;11.90;;;;;;;;;;4924796;28;20434;-55
2022/06/20 06:21:45;;;;;;;18.50;10.33;;;;;;;;;;4938827;28;20451;-57
2022/06/20 06:24:12;;;;;;;13.03;10.63;;;;;;;;;;4941338;28;20437;-55
2022/06/20 06:26:37;;;;;;;17.60;11.00;;;;;;;;;;4939940;28;20451;-57
2022/06/20 06:29:04;;;;;;;15.23;10.20;;;;;;;;;;4924401;28;20442;-56
2022/06/20 06:31:35;;;;;;;14.93;9.83;;;;;;;;;;4939057;28;20186;-56
2022/06/20 06:34:13;;;;;;;13.07;11.77;;;;;;;;;;4914792;28;22140;-57
2022/06/20 06:36:44;;;;;;;18.60;10.70;;;;;;;;;;4943102;28;20802;-56
2022/06/20 06:39:17;;;;;;;17.73;10.97;;;;;;;;;;4936279;28;20445;-55
2022/06/20 06:41:47;;;;;;;23.23;12.03;;;;;;;;;;4938629;28;20561;-55
2022/06/20 06:44:18;;;;;;;13.57;11.27;;;;;;;;;;4936497;28;20444;-55
2022/06/20 06:46:46;;;;;;;17.30;10.80;;;;;;;;;;4943729;28;20454;-55
2022/06/20 06:49:31;;;;;;;15.27;11.57;;;;;;;;;;4911614;28;20446;-56
2022/06/20 06:52:10;;;;;;;11.13;10.10;;;;;;;;;;4943460;28;20493;-55
2022/06/20 06:54:56;;;;;;;16.93;10.30;;;;;;;;;;4915263;28;20971;-56
2022/06/20 06:57:32;;;;;;;16.60;11.90;;;;;;;;;;4943469;28;20517;-56
2022/06/20 07:00:04;;;;;;;15.53;10.93;;;;;;;;;;4926878;28;20441;-55
2022/06/20 07:02:38;;;;;;;17.87;12.33;;;;;;;;;;4941875;28;20439;-56
2022/06/20 07:05:11;;;;;;;14.60;11.40;;;;;;;;;;4941623;28;20947;-56
2022/06/20 07:07:42;;;;;;;12.63;11.13;;;;;;;;;;4944404;28;20450;-55
2022/06/20 07:10:13;;;;;;;15.23;12.60;;;;;;;;;;4923773;28;20657;-55
2022/06/20 07:12:55;;;;;;;16.50;11.00;;;;;;;;;;4939853;28;20458;-56
2022/06/20 07:15:24;;;;;;;12.97;10.50;;;;;;;;;;4927623;28;20466;-56
2022/06/20 07:18:08;;;;;;;14.10;9.90;;;;;;;;;;4940956;28;20446;-56
2022/06/20 07:20:39;;;;;;;10.53;9.27;;;;;;;;;;4944706;28;20521;-56
2022/06/20 07:23:06;;;;;;;11.80;9.40;;;;;;;;;;4913034;28;20581;-57
2022/06/20 07:25:37;;;;;;;17.30;9.67;;;;;;;;;;4950027;28;20442;-58
2022/06/20 07:28:04;;;;;;;11.50;9.57;;;;;;;;;;4928771;28;20510;-58
2022/06/20 07:30:32;;;;;;;16.90;9.90;;;;;;;;;;4932884;28;20539;-55
2022/06/20 07:33:10;;;;;;;11.73;9.70;;;;;;;;;;4924975;28;20517;-56
2022/06/20 07:35:36;;;;;;;12.37;9.53;;;;;;;;;;4936354;28;20465;-56
2022/06/20 07:38:19;;;;;;;15.17;10.17;;;;;;;;;;4927111;28;20451;-56
2022/06/20 07:40:49;;;;;;;14.63;9.70;;;;;;;;;;4942249;28;20794;-56
2022/06/20 07:43:16;;;;;;;12.70;9.90;;;;;;;;;;4920722;28;21340;-56
2022/06/20 07:45:43;;;;;;;19.47;10.83;;;;;;;;;;4939953;28;20926;-55
2022/06/20 07:48:18;;;;;;;16.60;8.53;;;;;;;;;;4936759;28;20438;-56
2022/06/20 07:50:47;;;;;;;15.20;10.07;;;;;;;;;;4943919;28;20446;-55
2022/06/20 07:53:18;;;;;;;10.47;8.73;;;;;;;;;;4937650;28;21094;-57
2022/06/20 07:55:45;;;;;;;13.83;9.67;;;;;;;;;;4948009;28;20448;-56
2022/06/20 07:58:15;;;;;;;10.60;8.40;;;;;;;;;;4881316;28;20437;-58
2022/06/20 08:00:44;;;;;;;12.07;7.20;;;;;;;;;;4949677;28;20443;-57
2022/06/20 08:03:12;;;;;;;9.23;7.87;;;;;;;;;;4919538;28;20438;-57
2022/06/20 08:05:46;;;;;;;12.10;8.93;;;;;;;;;;4944188;28;20442;-56
2022/06/20 08:08:24;;;;;;;12.60;7.97;;;;;;;;;;4933520;28;20675;-55
2022/06/20 08:11:02;;;;;;;12.77;7.40;;;;;;;;;;4946426;28;20521;-56
2022/06/20 08:13:39;;;;;;;7.83;7.03;;;;;;;;;;4924517;28;20575;-57
2022/06/20 08:16:10;;;;;;;9.17;7.67;;;;;;;;;;4959313;28;20514;-55
2022/06/20 08:18:36;;;;;;;9.47;7.70;;;;;;;;;;4939424;28;20895;-57
2022/06/20 08:21:21;;;;;;;8.30;7.20;;;;;;;;;;4948876;28;20435;-54
2022/06/20 08:23:51;;;;;;;8.70;7.33;;;;;;;;;;4918979;28;20458;-58
2022/06/20 08:26:23;;;;;;;11.07;6.87;;;;;;;;;;4946565;28;20438;-55
2022/06/20 08:28:57;;;;;;;12.03;8.30;;;;;;;;;;4915865;28;20971;-54
2022/06/20 08:31:23;;;;;;;11.73;8.60;;;;;;;;;;4943361;28;20443;-56
2022/06/20 08:34:11;;;;;;;9.57;7.70;;;;;;;;;;4934541;28;20933;-59
2022/06/20 08:36:39;;;;;;;15.10;7.73;;;;;;;;;;4947225;28;20461;-57
2022/06/20 08:39:17;;;;;;;12.23;9.20;;;;;;;;;;4928022;28;21547;-57
2022/06/20 08:41:46;;;;;;;11.93;8.00;;;;;;;;;;4941288;28;20546;-57
2022/06/20 08:44:12;;;;;;;15.37;6.90;;;;;;;;;;4922008;28;22093;-56
2022/06/20 08:46:51;;;;;;;12.47;8.20;;;;;;;;;;4941631;28;20501;-55
2022/06/20 08:49:35;;;;;;;8.40;7.33;;;;;;;;;;4928196;28;20443;-56
2022/06/20 08:52:07;;;;;;;9.60;7.90;;;;;;;;;;4933256;28;20470;-57
2022/06/20 08:54:33;;;;;;;11.43;7.93;;;;;;;;;;4903671;28;21048;-54
2022/06/20 08:57:02;;;;;;;9.00;7.60;;;;;;;;;;4937828;28;21766;-55
2022/06/20 08:59:39;;;;;;;11.07;8.20;;;;;;;;;;4907243;28;20187;-55
2022/06/20 09:02:11;;;;;;;8.60;6.67;;;;;;;;;;4933831;28;20442;-55
2022/06/20 09:05:02;;;;;;;13.07;8.10;;;;;;;;;;4908677;28;20439;-56
2022/06/20 09:07:36;;;;;;;9.53;7.33;;;;;;;;;;4934105;28;20451;-55
2022/06/20 09:10:02;;;;;;;16.50;8.63;;;;;;;;;;4906090;28;20864;-55
2022/06/20 09:12:39;;;;;;;11.50;8.50;;;;;;;;;;4936546;28;20525;-56
2022/06/20 09:15:11;;;;;;;17.27;7.13;;;;;;;;;;4917754;28;20571;-54
2022/06/20 09:17:46;;;;;;;8.63;7.73;;;;;;;;;;4933965;28;20457;-53
2022/06/20 09:20:12;;;;;;;10.27;8.43;;;;;;;;;;4925468;28;20897;-54
2022/06/20 09:22:47;;;;;;;11.00;7.97;;;;;;;;;;4908685;28;20454;-55
2022/06/20 09:25:33;;;;;;;9.83;7.63;;;;;;;;;;4928230;28;20439;-56
2022/06/20 09:28:03;;;;;;;8.90;7.37;;;;;;;;;;4930073;28;20455;-55
2022/06/20 09:30:49;;;;;;;11.90;8.10;;;;;;;;;;4923683;28;20442;-57
2022/06/20 09:33:21;;;;;;;8.57;7.73;;;;;;;;;;4924447;28;21189;-57
2022/06/20 09:36:00;;;;;;;13.00;7.77;;;;;;;;;;4921108;28;20439;-53
2022/06/20 09:38:35;;;;;;;14.03;8.97;;;;;;;;;;4932144;28;20856;-55
2022/06/20 09:41:34;;;;;;;9.87;8.43;;;;;;;;;;4911799;28;20446;-55
2022/06/20 09:44:04;;;;;;;14.33;7.97;;;;;;;;;;4918023;28;20485;-56
2022/06/20 09:46:50;;;;;;;7.80;7.03;;;;;;;;;;4929023;28;20431;-55
2022/06/20 09:49:36;;;;;;;7.50;6.63;;;;;;;;;;4931986;28;20495;-60
2022/06/20 09:52:14;;;;;;;8.60;6.57;;;;;;;;;;4914366;28;20443;-55
2022/06/20 09:54:52;;;;;;;9.17;7.10;;;;;;;;;;4931867;28;20466;-55
2022/06/20 09:57:41;;;;;;;8.63;6.37;;;;;;;;;;4928930;28;20549;-55
2022/06/20 10:00:12;;;;;;;9.67;7.37;;;;;;;;;;4929027;28;20433;-55
2022/06/20 10:02:45;;;;;;;7.60;6.27;;;;;;;;;;4925003;28;20490;-55
2022/06/20 10:05:17;;;;;;;13.70;7.47;;;;;;;;;;4913761;28;20455;-53
2022/06/20 10:08:21;;;;;;;13.20;7.50;;;;;;;;;;4937218;28;20444;-55
2022/06/20 10:10:53;;;;;;;11.50;6.87;;;;;;;;;;4934512;28;20692;-55
2022/06/20 10:13:21;;;;;;;12.80;7.07;;;;;;;;;;4914904;28;21641;-55
2022/06/20 10:15:51;;;;;;;7.37;6.60;;;;;;;;;;4943631;28;20472;-55
2022/06/20 10:18:21;;;;;;;9.33;6.73;;;;;;;;;;4931980;28;20435;-55
2022/06/20 10:21:13;;;;;;;8.23;7.07;;;;;;;;;;4938595;28;20435;-55
2022/06/20 10:24:12;;;;;;;9.07;6.73;;;;;;;;;;4913503;28;20435;-54
2022/06/20 10:26:38;;;;;;;16.33;8.10;;;;;;;;;;4938946;28;20434;-55
2022/06/20 10:29:07;;;;;;;12.90;7.40;;;;;;;;;;4924784;28;20951;-54
2022/06/20 10:31:41;;;;;;;9.77;6.60;;;;;;;;;;4945673;28;20437;-54
2022/06/20 10:34:10;;;;;;;8.57;6.20;;;;;;;;;;4914967;28;20541;-55
2022/06/20 10:36:40;;;;;;;9.87;6.00;;;;;;;;;;4945844;28;20442;-55
2022/06/20 10:39:10;;;;;;;6.17;5.10;;;;;;;;;;4894696;28;20463;-56
2022/06/20 10:41:40;;;;;;;6.73;5.57;;;;;;;;;;4954102;28;20444;-52
2022/06/20 10:44:23;;;;;;;6.87;5.33;;;;;;;;;;4912916;28;20462;-55
2022/06/20 10:46:56;;;;;;;4.97;4.47;;;;;;;;;;4931806;28;20435;-55
2022/06/20 10:49:28;;;;;;;7.63;4.90;;;;;;;;;;4931125;28;20458;-55
2022/06/20 10:51:58;;;;;;;9.30;5.80;;;;;;;;;;4942772;28;20438;-54
2022/06/20 10:54:27;;;;;;;7.13;4.80;;;;;;;;;;4913976;28;20523;-56
2022/06/20 10:57:00;;;;;;;6.30;5.70;;;;;;;;;;4943097;28;21476;-55
2022/06/20 10:59:26;;;;;;;6.90;5.17;;;;;;;;;;4936338;28;20435;-54
2022/06/20 11:02:00;;;;;;;8.10;5.30;;;;;;;;;;4935833;28;20434;-55
2022/06/20 11:04:43;;;;;;;8.63;6.27;;;;;;;;;;4938561;28;20520;-53
2022/06/20 11:07:20;;;;;;;6.20;5.20;;;;;;;;;;4941219;28;20458;-55
2022/06/20 11:09:46;;;;;;;6.20;5.13;;;;;;;;;;4939802;28;20469;-55
2022/06/20 11:12:24;;;;;;;5.60;4.87;;;;;;;;;;4940380;28;20435;-55
2022/06/20 11:14:54;;;;;;;7.17;5.07;;;;;;;;;;4893513;28;20486;-56
2022/06/20 11:17:20;;;;;;;9.57;4.60;;;;;;;;;;4945817;28;20493;-56
2022/06/20 11:19:54;;;;;;;5.07;4.60;;;;;;;;;;4942778;28;20816;-56
2022/06/20 11:22:21;;;;;;;5.83;4.50;;;;;;;;;;4939619;28;20478;-56
2022/06/20 11:24:58;;;;;;;8.50;5.73;;;;;;;;;;4926697;28;20461;-55
2022/06/20 11:27:24;;;;;;;6.90;5.40;;;;;;;;;;4943368;28;21715;-55
2022/06/20 11:29:53;;;;;;;10.70;5.70;;;;;;;;;;4919456;28;20446;-54
2022/06/20 11:32:24;;;;;;;6.70;5.90;;;;;;;;;;4946646;28;20446;-56
2022/06/20 11:34:57;;;;;;;6.53;5.87;;;;;;;;;;4921402;28;21456;-56
2022/06/20 11:37:27;;;;;;;12.43;7.93;;;;;;;;;;4946833;28;20443;-55
2022/06/20 11:40:11;;;;;;;8.60;7.07;;;;;;;;;;4927985;28;20888;-56
2022/06/20 11:42:57;;;;;;;9.03;7.10;;;;;;;;;;4917183;28;20506;-56
2022/06/20 11:45:29;;;;;;;9.63;7.07;;;;;;;;;;4928597;28;20919;-55
2022/06/20 11:48:06;;;;;;;7.60;6.83;;;;;;;;;;4943315;28;20986;-55
2022/06/20 11:50:44;;;;;;;13.90;7.20;;;;;;;;;;4939766;28;20446;-56
2022/06/20 11:53:30;;;;;;;21.93;7.50;;;;;;;;;;4921916;28;21209;-54
2022/06/20 11:56:02;;;;;;;8.30;6.50;;;;;;;;;;4927114;28;20525;-55
2022/06/20 11:58:30;;;;;;;9.00;6.50;;;;;;;;;;4885332;28;21205;-55
2022/06/20 12:01:03;;;;;;;12.37;6.63;;;;;;;;;;4942884;28;20458;-55
2022/06/20 12:03:30;;;;;;;10.80;8.13;;;;;;;;;;4929013;28;20446;-54
2022/06/20 12:05:56;;;;;;;7.80;5.40;;;;;;;;;;4913508;28;21007;-56
2022/06/20 12:08:22;;;;;;;8.40;7.23;;;;;;;;;;4932500;28;20444;-56
2022/06/20 12:10:51;;;;;;;7.83;6.00;;;;;;;;;;4912182;28;20450;-55
2022/06/20 12:13:18;;;;;;;8.90;5.23;;;;;;;;;;4910905;28;20471;-56
2022/06/20 12:15:48;;;;;;;8.40;6.60;;;;;;;;;;4894516;28;20985;-54
2022/06/20 12:18:14;;;;;;;5.93;5.23;;;;;;;;;;4906838;28;20493;-56
2022/06/20 12:23:46;;;;;;;7.43;5.00;;;;;;;;;;4923530;28;20470;-56
2022/06/20 12:26:14;;;;;;;8.53;4.30;;;;;;;;;;4934314;28;20455;-57
2022/06/20 12:28:41;;;;;;;8.20;4.03;;;;;;;;;;4897631;28;20466;-55
2022/06/20 12:31:13;;;;;;;5.23;3.57;;;;;;;;;;4926457;28;20436;-56
2022/06/20 12:33:41;;;;;;;18.80;6.13;;;;;;;;;;4902074;28;20622;-54
2022/06/20 12:36:10;;;;;;;8.37;6.63;;;;;;;;;;4930041;28;20466;-55
2022/06/20 12:38:38;;;;;;;9.60;7.10;;;;;;;;;;4924993;28;20431;-55
2022/06/20 12:41:05;;;;;;;8.80;5.80;;;;;;;;;;4948091;28;20466;-55
2022/06/20 12:43:38;;;;;;;5.93;5.23;;;;;;;;;;4911263;28;20514;-57
2022/06/20 12:46:11;;;;;;;6.70;5.37;;;;;;;;;;4893103;28;20525;-54
2022/06/20 12:48:40;;;;;;;9.90;5.80;;;;;;;;;;4931569;28;20458;-62
2022/06/20 12:51:12;;;;;;;8.60;5.50;;;;;;;;;;4927181;28;20614;-56
2022/06/20 12:53:57;;;;;;;10.67;6.70;;;;;;;;;;4929399;28;20486;-55
2022/06/20 12:56:50;;;;;;;9.30;6.03;;;;;;;;;;4935675;28;20498;-54
2022/06/20 12:59:26;;;;;;;8.70;7.00;;;;;;;;;;4917516;28;20447;-56
2022/06/20 13:02:00;;;;;;;8.47;6.13;;;;;;;;;;4896609;28;21315;-54
2022/06/20 13:04:33;;;;;;;14.57;6.87;;;;;;;;;;4935043;28;20478;-55
2022/06/20 13:07:21;;;;;;;13.20;8.17;;;;;;;;;;4891618;28;20546;-55
2022/06/20 13:09:59;;;;;;;12.20;7.03;;;;;;;;;;4920709;28;20881;-56
2022/06/20 13:12:38;;;;;;;8.17;6.50;;;;;;;;;;4910431;28;20442;-57
2022/06/20 13:15:25;;;;;;;11.63;6.10;;;;;;;;;;4925860;28;20515;-55
2022/06/20 13:17:58;;;;;;;13.27;7.03;;;;;;;;;;4916902;28;20790;-55
2022/06/20 13:20:36;;;;;;;9.00;7.03;;;;;;;;;;4903747;28;20450;-57
2022/06/20 13:23:09;;;;;;;11.23;8.40;;;;;;;;;;4943987;28;20462;-55
2022/06/20 13:25:39;;;;;;;10.17;7.10;;;;;;;;;;4908047;28;20589;-55
2022/06/20 13:28:21;;;;;;;10.40;7.70;;;;;;;;;;4925663;28;20447;-55
2022/06/20 13:30:50;;;;;;;9.03;7.30;;;;;;;;;;4909117;28;20537;-54
2022/06/20 13:33:19;;;;;;;8.87;7.23;;;;;;;;;;4930798;28;20483;-54
2022/06/20 13:36:03;;;;;;;8.53;7.50;;;;;;;;;;4925279;28;20523;-56
2022/06/20 13:38:44;;;;;;;8.27;7.33;;;;;;;;;;4932775;28;20446;-55
2022/06/20 13:41:15;;;;;;;13.67;7.80;;;;;;;;;;4908926;28;20582;-54
2022/06/20 13:43:45;;;;;;;9.27;8.00;;;;;;;;;;4931987;28;24402;-55
2022/06/20 13:46:17;;;;;;;7.53;6.83;;;;;;;;;;4892417;28;20446;-54
2022/06/20 13:48:45;;;;;;;7.60;6.80;;;;;;;;;;4926012;28;20462;-54
2022/06/20 13:51:13;;;;;;;7.47;6.77;;;;;;;;;;4924852;28;21021;-54
2022/06/20 13:53:53;;;;;;;11.73;6.90;;;;;;;;;;4929474;28;21484;-55
2022/06/20 13:56:36;;;;;;;10.20;7.90;;;;;;;;;;4907989;28;20569;-56
2022/06/20 13:59:17;;;;;;;7.27;6.40;;;;;;;;;;4931947;28;20448;-55
2022/06/20 14:01:54;;;;;;;7.60;5.77;;;;;;;;;;4904466;28;20459;-54
2022/06/20 14:04:22;;;;;;;6.83;6.27;;;;;;;;;;4909680;28;20454;-56
2022/06/20 14:06:55;;;;;;;6.77;6.17;;;;;;;;;;4919110;28;20454;-55
2022/06/20 14:09:48;;;;;;;6.50;5.77;;;;;;;;;;4927117;28;20466;-58
2022/06/20 14:12:21;;;;;;;6.87;6.27;;;;;;;;;;4926915;28;20443;-55
2022/06/20 14:14:51;;;;;;;8.73;6.33;;;;;;;;;;4907691;28;20554;-55
2022/06/20 14:17:19;;;;;;;7.47;6.37;;;;;;;;;;4926222;28;21083;-55
2022/06/20 14:19:50;;;;;;;7.33;5.57;;;;;;;;;;4878887;28;20452;-55
2022/06/20 14:22:20;;;;;;;8.70;6.00;;;;;;;;;;4919252;28;20530;-55
2022/06/20 14:24:52;;;;;;;6.17;5.40;;;;;;;;;;4920648;28;20446;-55
2022/06/20 14:27:19;;;;;;;7.00;6.30;;;;;;;;;;4909448;28;20598;-57
2022/06/20 14:30:04;;;;;;;9.90;5.40;;;;;;;;;;4923767;28;20439;-57
2022/06/20 14:32:49;;;;;;;6.23;4.80;;;;;;;;;;4897188;28;21169;-56
2022/06/20 14:35:32;;;;;;;5.47;5.00;;;;;;;;;;4921472;28;20538;-57
2022/06/20 14:38:01;;;;;;;6.20;5.60;;;;;;;;;;4925502;28;20449;-55
2022/06/20 14:40:37;;;;;;;5.27;4.77;;;;;;;;;;4921584;28;21027;-57
2022/06/20 14:43:21;;;;;;;9.77;5.60;;;;;;;;;;4926057;28;20447;-55
2022/06/20 14:46:00;;;;;;;7.40;6.20;;;;;;;;;;4931830;28;20435;-55
2022/06/20 14:48:35;;;;;;;8.50;5.23;;;;;;;;;;4927929;28;20538;-55
2022/06/20 14:51:02;;;;;;;8.77;5.97;;;;;;;;;;4932454;28;20470;-56
2022/06/20 14:53:34;;;;;;;7.80;6.20;;;;;;;;;;4885619;28;20554;-55
2022/06/20 14:56:26;;;;;;;10.80;6.57;;;;;;;;;;4930591;28;20443;-56
2022/06/20 14:58:52;;;;;;;9.93;5.20;;;;;;;;;;4912751;28;20435;-58
2022/06/20 15:01:21;;;;;;;5.90;5.40;;;;;;;;;;4936811;28;20719;-56
2022/06/20 15:03:51;;;;;;;5.70;5.00;;;;;;;;;;4915260;28;20454;-55
2022/06/20 15:06:19;;;;;;;5.33;4.63;;;;;;;;;;4936392;28;21516;-54
2022/06/20 15:09:00;;;;;;;7.53;5.63;;;;;;;;;;4934390;28;20473;-55
2022/06/20 15:11:34;;;;;;;5.20;4.70;;;;;;;;;;4935084;28;20442;-55
2022/06/20 15:14:04;;;;;;;7.40;5.70;;;;;;;;;;4934698;28;20485;-55